Time;durP1;ratioP1;P1;durP2;ratioP2;P2;SDS_P1;SDS_P2;PMS_P1;PMS_P2;Temp;Humidity;BMP_temperature;BMP_pressure;BME280_temperature;BME280_humidity;BME280_pressure;Samples;Min_cycle;Max_cycle;Signal;HPM_P1;HPM_P2
2022/07/14 00:00:45;;;;;;;1.67;1.10;;;22.30;99.90;;;;;;5030661;28;22237;-51
2022/07/14 00:03:12;;;;;;;0.60;0.60;;;22.40;99.90;;;;;;5031055;28;20203;-50
2022/07/14 00:05:40;;;;;;;1.10;0.70;;;22.30;99.80;;;;;;5031285;28;20273;-52
2022/07/14 00:08:07;;;;;;;1.83;0.83;;;22.30;99.90;;;;;;5026365;28;20190;-50
2022/07/14 00:10:34;;;;;;;1.17;1.17;;;22.30;99.80;;;;;;5031182;28;20206;-50
2022/07/14 00:13:01;;;;;;;1.23;0.90;;;22.30;99.50;;;;;;5030788;28;20652;-51
2022/07/14 00:15:29;;;;;;;2.30;0.80;;;22.30;99.20;;;;;;5030942;28;20646;-50
2022/07/14 00:17:58;;;;;;;0.60;0.60;;;22.40;99.20;;;;;;5030919;28;20699;-51
2022/07/14 00:20:25;;;;;;;0.80;0.80;;;22.40;99.50;;;;;;5028633;28;20270;-50
2022/07/14 00:22:56;;;;;;;1.00;1.00;;;22.40;99.90;;;;;;5023899;28;20294;-50
2022/07/14 00:25:23;;;;;;;1.40;1.30;;;22.40;99.40;;;;;;5029265;28;20226;-50
2022/07/14 00:27:50;;;;;;;1.20;1.00;;;22.40;99.20;;;;;;5031976;28;20282;-50
2022/07/14 00:30:17;;;;;;;1.07;1.07;;;22.40;99.60;;;;;;5030983;28;20209;-50
2022/07/14 00:32:44;;;;;;;3.17;1.37;;;22.50;99.90;;;;;;5027452;28;20657;-51
2022/07/14 00:35:11;;;;;;;1.57;1.17;;;22.60;99.90;;;;;;5030041;28;20222;-51
2022/07/14 00:37:38;;;;;;;2.57;1.00;;;22.50;99.90;;;;;;5031949;28;20763;-50
2022/07/14 00:40:08;;;;;;;1.47;1.37;;;22.40;99.90;;;;;;5031491;28;20230;-51
2022/07/14 00:42:38;;;;;;;0.90;0.90;;;22.40;99.90;;;;;;5030350;28;20231;-51
2022/07/14 00:45:08;;;;;;;1.67;1.10;;;22.20;99.90;;;;;;5028803;28;20731;-50
2022/07/14 00:47:35;;;;;;;1.00;1.00;;;22.10;99.90;;;;;;5031813;28;20682;-50
2022/07/14 00:50:02;;;;;;;1.30;1.10;;;22.00;99.90;;;;;;5031896;28;20685;-50
2022/07/14 00:52:30;;;;;;;4.03;1.07;;;22.00;99.90;;;;;;5031187;28;20244;-50
2022/07/14 00:54:58;;;;;;;1.13;0.90;;;22.00;99.90;;;;;;5027446;28;20720;-50
2022/07/14 00:57:26;;;;;;;1.60;1.60;;;21.90;99.90;;;;;;5031812;28;20365;-50
2022/07/14 00:59:55;;;;;;;1.20;1.20;;;21.90;99.90;;;;;;5030834;28;20333;-50
2022/07/14 01:02:22;;;;;;;1.30;1.30;;;21.90;99.90;;;;;;5029971;28;20236;-50
2022/07/14 01:04:50;;;;;;;1.03;0.90;;;21.80;99.90;;;;;;5029813;28;20223;-50
2022/07/14 01:07:19;;;;;;;1.33;1.20;;;21.80;99.90;;;;;;5030681;28;20191;-50
2022/07/14 01:09:47;;;;;;;1.50;1.33;;;21.70;99.90;;;;;;5030506;28;20198;-51
2022/07/14 01:12:14;;;;;;;1.60;1.50;;;21.60;99.90;;;;;;5030255;28;20257;-50
2022/07/14 01:14:46;;;;;;;1.23;1.17;;;21.60;99.90;;;;;;5029945;28;20306;-50
2022/07/14 01:17:14;;;;;;;1.53;1.00;;;21.60;99.90;;;;;;5031496;28;20217;-51
2022/07/14 01:19:41;;;;;;;1.70;1.30;;;21.50;99.90;;;;;;5031673;28;20206;-51
2022/07/14 01:22:09;;;;;;;2.93;1.30;;;21.60;99.90;;;;;;5031021;28;20206;-50
2022/07/14 01:24:36;;;;;;;1.67;1.50;;;21.50;99.90;;;;;;5029269;28;20219;-50
2022/07/14 01:27:03;;;;;;;2.63;1.37;;;21.50;99.90;;;;;;5031559;28;20198;-50
2022/07/14 01:29:30;;;;;;;3.60;1.20;;;21.50;99.90;;;;;;5031471;28;20205;-50
2022/07/14 01:31:58;;;;;;;1.07;0.93;;;21.50;99.90;;;;;;5029695;28;20198;-51
2022/07/14 01:34:25;;;;;;;1.30;1.30;;;21.60;99.90;;;;;;5029889;28;20222;-51
2022/07/14 01:36:53;;;;;;;1.83;1.07;;;21.60;99.90;;;;;;5030217;28;20218;-50
2022/07/14 01:39:22;;;;;;;1.57;1.17;;;21.50;99.90;;;;;;5031015;28;20632;-50
2022/07/14 01:41:49;;;;;;;2.50;1.37;;;21.50;99.90;;;;;;5030527;28;20695;-51
2022/07/14 01:44:16;;;;;;;1.10;1.00;;;21.50;99.90;;;;;;5029227;28;20256;-50
2022/07/14 01:46:43;;;;;;;5.43;1.23;;;21.50;99.90;;;;;;5031174;28;20199;-51
2022/07/14 01:49:10;;;;;;;7.67;1.40;;;21.50;99.90;;;;;;5029641;28;20207;-50
2022/07/14 01:51:38;;;;;;;2.23;1.03;;;21.70;99.90;;;;;;5030016;28;20203;-51
2022/07/14 01:54:05;;;;;;;1.33;1.27;;;21.90;99.90;;;;;;5029106;28;20288;-50
2022/07/14 01:56:34;;;;;;;1.33;1.30;;;21.90;99.90;;;;;;5031261;28;20195;-50
2022/07/14 01:59:01;;;;;;;2.00;1.10;;;21.90;99.90;;;;;;5031188;28;20205;-50
2022/07/14 02:01:40;;;;;;;2.07;1.40;;;22.00;99.90;;;;;;5030631;28;20620;-50
2022/07/14 02:04:10;;;;;;;2.50;1.20;;;21.90;99.90;;;;;;5029699;28;20225;-51
2022/07/14 02:06:38;;;;;;;1.10;1.10;;;21.90;99.90;;;;;;5032976;28;20209;-50
2022/07/14 02:09:05;;;;;;;1.30;1.30;;;21.90;99.90;;;;;;5034107;28;20210;-50
2022/07/14 02:14:18;;;;;;;1.10;1.10;;;21.80;99.90;;;;;;5025818;28;20229;-51
2022/07/14 02:16:45;;;;;;;1.20;1.20;;;21.70;99.90;;;;;;5033017;28;20215;-50
2022/07/14 02:19:13;;;;;;;1.50;1.40;;;21.70;99.90;;;;;;5034795;28;20210;-51
2022/07/14 02:21:41;;;;;;;2.93;1.53;;;21.70;99.90;;;;;;5032918;28;20199;-50
2022/07/14 02:24:08;;;;;;;1.23;1.07;;;21.70;99.90;;;;;;5032529;28;20220;-50
2022/07/14 02:26:38;;;;;;;1.67;1.43;;;21.70;99.90;;;;;;5034217;28;20668;-50
2022/07/14 02:29:05;;;;;;;2.03;1.23;;;21.70;99.90;;;;;;5034621;28;20293;-50
2022/07/14 02:31:32;;;;;;;1.10;1.10;;;21.70;99.90;;;;;;5033684;28;20207;-50
2022/07/14 02:34:00;;;;;;;3.13;1.40;;;21.60;99.90;;;;;;5032032;28;20241;-50
2022/07/14 02:36:27;;;;;;;1.50;1.50;;;21.50;99.90;;;;;;5032512;28;20202;-50
2022/07/14 02:38:54;;;;;;;1.30;1.30;;;21.50;99.90;;;;;;5034072;28;20825;-50
2022/07/14 02:41:21;;;;;;;1.13;0.90;;;21.40;99.90;;;;;;5032420;28;20207;-50
2022/07/14 02:43:50;;;;;;;1.80;1.17;;;21.30;99.90;;;;;;5032035;28;20202;-51
2022/07/14 02:46:17;;;;;;;8.47;1.47;;;21.30;99.90;;;;;;5034070;28;20199;-51
2022/07/14 02:48:44;;;;;;;1.63;1.53;;;21.20;99.90;;;;;;5034172;28;20198;-50
2022/07/14 02:51:11;;;;;;;0.80;0.80;;;21.10;99.90;;;;;;5032469;28;20194;-51
2022/07/14 02:53:38;;;;;;;3.67;1.23;;;21.00;99.90;;;;;;5032233;28;20205;-51
2022/07/14 02:56:06;;;;;;;4.47;2.00;;;21.00;99.90;;;;;;5033770;28;20668;-50
2022/07/14 02:58:34;;;;;;;1.03;1.03;;;21.00;99.90;;;;;;5033965;28;20222;-51
2022/07/14 03:01:05;;;;;;;2.57;2.37;;;20.90;99.90;;;;;;5033864;28;20687;-51
2022/07/14 03:03:34;;;;;;;2.73;1.73;;;20.90;99.90;;;;;;5030481;28;20202;-50
2022/07/14 03:06:01;;;;;;;2.00;1.73;;;20.90;99.90;;;;;;5032474;28;20223;-51
2022/07/14 03:08:28;;;;;;;2.87;2.23;;;20.80;99.90;;;;;;5033744;28;20545;-51
2022/07/14 03:10:55;;;;;;;2.13;1.63;;;20.90;99.90;;;;;;5033943;28;20222;-51
2022/07/14 03:13:22;;;;;;;1.40;1.30;;;20.90;99.90;;;;;;5031664;28;20202;-50
2022/07/14 03:15:50;;;;;;;2.90;1.20;;;21.00;99.90;;;;;;5033358;28;20268;-50
2022/07/14 03:18:18;;;;;;;1.47;1.47;;;21.10;99.90;;;;;;5031866;28;20254;-50
2022/07/14 03:20:45;;;;;;;1.50;1.40;;;21.10;99.90;;;;;;5033470;28;20225;-51
2022/07/14 03:23:12;;;;;;;1.53;1.43;;;21.10;99.90;;;;;;5031719;28;20584;-50
2022/07/14 03:25:43;;;;;;;1.50;1.30;;;21.00;99.90;;;;;;5033347;28;20238;-51
2022/07/14 03:28:10;;;;;;;1.33;1.33;;;21.10;99.90;;;;;;5033511;28;20264;-51
2022/07/14 03:30:37;;;;;;;1.83;1.73;;;21.20;99.90;;;;;;5033491;28;20214;-51
2022/07/14 03:33:04;;;;;;;1.40;1.37;;;21.20;99.90;;;;;;5029824;28;20210;-50
2022/07/14 03:35:33;;;;;;;1.50;1.50;;;21.10;99.90;;;;;;5031508;28;20722;-50
2022/07/14 03:38:00;;;;;;;1.57;1.17;;;21.10;99.90;;;;;;5032975;28;20635;-50
2022/07/14 03:40:27;;;;;;;1.53;1.27;;;21.00;99.90;;;;;;5033213;28;20617;-50
2022/07/14 03:42:54;;;;;;;1.43;1.37;;;21.00;99.90;;;;;;5032168;28;20750;-51
2022/07/14 03:45:21;;;;;;;1.20;1.20;;;21.00;99.90;;;;;;5031022;28;20222;-50
2022/07/14 03:47:48;;;;;;;1.53;1.30;;;21.00;99.90;;;;;;5033033;28;20643;-50
2022/07/14 03:50:15;;;;;;;1.53;1.30;;;21.10;99.90;;;;;;5032859;28;20213;-51
2022/07/14 03:52:43;;;;;;;1.73;1.40;;;21.10;99.90;;;;;;5032488;28;20214;-50
2022/07/14 03:55:10;;;;;;;2.00;1.90;;;21.10;99.90;;;;;;5054025;22;20288;-53
2022/07/14 03:57:37;;;;;;;1.60;1.60;;;21.30;99.90;;;;;;5049968;28;20228;-53
2022/07/14 04:00:06;;;;;;;1.57;1.57;;;21.40;99.90;;;;;;5053130;28;20730;-52
2022/07/14 04:02:33;;;;;;;2.30;1.87;;;21.50;99.90;;;;;;5068400;28;20198;-52
2022/07/14 04:05:00;;;;;;;1.60;1.50;;;21.40;99.90;;;;;;5053133;28;20225;-53
2022/07/14 04:07:27;;;;;;;3.80;1.40;;;21.30;99.90;;;;;;5049052;28;20201;-52
2022/07/14 04:09:55;;;;;;;1.60;1.53;;;21.30;99.90;;;;;;5050739;28;20205;-52
2022/07/14 04:12:22;;;;;;;1.20;1.20;;;21.20;99.90;;;;;;5041667;28;20289;-53
2022/07/14 04:14:49;;;;;;;1.80;1.03;;;21.10;99.90;;;;;;5035992;28;20205;-53
2022/07/14 04:17:16;;;;;;;2.40;1.27;;;21.10;99.90;;;;;;5030862;28;20579;-52
2022/07/14 04:19:43;;;;;;;2.30;1.50;;;21.10;99.90;;;;;;5038129;28;20221;-53
2022/07/14 04:22:10;;;;;;;1.67;1.57;;;21.00;99.90;;;;;;5047113;28;20340;-53
2022/07/14 04:24:41;;;;;;;2.40;1.63;;;21.10;99.90;;;;;;5044814;28;20209;-52
2022/07/14 04:27:09;;;;;;;5.10;1.53;;;21.10;99.90;;;;;;5042617;28;20203;-53
2022/07/14 04:29:36;;;;;;;1.30;1.20;;;21.10;99.90;;;;;;5045903;28;20276;-53
2022/07/14 04:32:04;;;;;;;1.63;1.10;;;21.10;99.90;;;;;;5047741;28;20209;-52
2022/07/14 04:34:34;;;;;;;1.80;1.13;;;21.10;99.90;;;;;;5044852;28;20201;-53
2022/07/14 04:37:01;;;;;;;4.03;1.23;;;21.20;99.90;;;;;;5047542;28;20225;-52
2022/07/14 04:39:31;;;;;;;2.30;1.70;;;21.30;99.90;;;;;;5034178;28;20226;-53
2022/07/14 04:41:58;;;;;;;2.67;1.67;;;21.30;99.90;;;;;;5044071;28;20193;-53
2022/07/14 04:44:27;;;;;;;2.10;1.20;;;21.40;99.90;;;;;;5041732;28;20210;-52
2022/07/14 04:46:54;;;;;;;1.80;1.27;;;21.40;99.90;;;;;;5045386;28;20322;-53
2022/07/14 04:52:06;;;;;;;2.50;1.20;;;21.60;99.90;;;;;;5049084;28;20204;-53
2022/07/14 04:54:35;;;;;;;2.50;1.40;;;21.80;99.90;;;;;;5044359;28;20206;-53
2022/07/14 04:57:03;;;;;;;2.60;1.10;;;21.80;99.90;;;;;;5043707;28;20221;-52
2022/07/14 04:59:32;;;;;;;1.83;1.73;;;21.90;99.90;;;;;;5049524;28;20217;-53
2022/07/14 05:02:01;;;;;;;1.87;0.90;;;21.90;99.90;;;;;;5049171;28;20284;-53
2022/07/14 05:04:29;;;;;;;2.50;1.43;;;21.90;99.90;;;;;;5044230;28;20206;-52
2022/07/14 05:06:56;;;;;;;3.17;1.03;;;21.90;99.90;;;;;;5043183;28;20221;-52
2022/07/14 05:09:25;;;;;;;5.43;1.30;;;21.80;99.90;;;;;;5033424;28;20635;-53
2022/07/14 05:11:52;;;;;;;2.27;1.00;;;21.80;99.90;;;;;;5028996;28;20202;-53
2022/07/14 05:14:23;;;;;;;1.60;1.50;;;21.90;99.90;;;;;;5043481;28;20194;-52
2022/07/14 05:16:51;;;;;;;5.70;1.60;;;22.00;99.90;;;;;;5046597;28;20309;-58
2022/07/14 05:19:18;;;;;;;2.20;1.00;;;22.20;99.90;;;;;;5049539;28;20220;-53
2022/07/14 05:21:46;;;;;;;2.83;1.60;;;22.40;99.90;;;;;;5048739;28;20569;-52
2022/07/14 05:24:14;;;;;;;2.97;1.13;;;22.60;99.90;;;;;;5039943;28;20285;-52
2022/07/14 05:26:42;;;;;;;2.10;1.30;;;22.50;99.90;;;;;;5045525;28;20221;-53
2022/07/14 05:29:09;;;;;;;3.80;1.73;;;22.40;99.90;;;;;;5032788;28;20199;-52
2022/07/14 05:31:36;;;;;;;2.47;1.90;;;22.30;99.90;;;;;;5029210;28;20203;-53
2022/07/14 05:34:05;;;;;;;1.57;1.40;;;22.10;99.90;;;;;;5026397;28;20206;-52
2022/07/14 05:36:32;;;;;;;1.80;1.40;;;22.00;99.90;;;;;;5025443;28;20265;-52
2022/07/14 05:38:59;;;;;;;2.00;1.20;;;21.90;99.90;;;;;;5028069;28;20223;-52
2022/07/14 05:41:26;;;;;;;2.13;1.90;;;21.90;99.90;;;;;;5031240;28;20214;-52
2022/07/14 05:43:53;;;;;;;2.33;1.30;;;21.90;99.90;;;;;;5033240;28;20198;-52
2022/07/14 05:46:20;;;;;;;1.27;1.27;;;21.90;99.90;;;;;;5033786;28;20623;-53
2022/07/14 05:48:48;;;;;;;2.07;1.37;;;21.90;99.90;;;;;;5032405;28;20301;-53
2022/07/14 05:51:18;;;;;;;1.87;1.77;;;22.10;99.90;;;;;;5025465;28;20214;-52
2022/07/14 05:53:46;;;;;;;2.20;1.80;;;22.20;99.90;;;;;;5028454;28;20221;-52
2022/07/14 05:56:16;;;;;;;3.60;1.20;;;22.70;99.90;;;;;;5033901;28;20778;-53
2022/07/14 05:58:43;;;;;;;1.30;1.20;;;23.20;99.90;;;;;;5036822;28;20228;-52
2022/07/14 06:01:11;;;;;;;4.03;1.47;;;23.40;99.90;;;;;;5040928;28;20760;-52
2022/07/14 06:03:38;;;;;;;3.53;1.80;;;23.40;99.90;;;;;;5049597;28;20659;-52
2022/07/14 06:06:07;;;;;;;3.13;1.40;;;23.40;99.90;;;;;;5035624;28;20249;-52
2022/07/14 06:08:36;;;;;;;2.20;1.43;;;23.60;99.90;;;;;;5051363;28;20664;-53
2022/07/14 06:11:04;;;;;;;4.20;1.60;;;24.20;99.90;;;;;;5052616;28;20244;-52
2022/07/14 06:13:32;;;;;;;4.23;1.40;;;24.60;99.90;;;;;;5047842;28;20206;-52
2022/07/14 06:16:00;;;;;;;2.73;1.50;;;24.60;99.90;;;;;;5044752;28;20218;-53
2022/07/14 06:18:27;;;;;;;4.53;1.60;;;24.50;99.90;;;;;;5047629;28;20222;-52
2022/07/14 06:20:54;;;;;;;4.10;1.67;;;24.60;99.90;;;;;;5046576;28;20256;-53
2022/07/14 06:23:21;;;;;;;1.43;1.30;;;24.70;99.90;;;;;;5047236;28;20202;-53
2022/07/14 06:25:50;;;;;;;1.43;1.30;;;24.80;99.90;;;;;;5036122;28;20765;-52
2022/07/14 06:28:17;;;;;;;6.13;1.83;;;25.10;99.90;;;;;;5031686;28;20194;-52
2022/07/14 06:30:45;;;;;;;2.83;1.70;;;25.30;99.90;;;;;;5045624;28;20289;-52
2022/07/14 06:33:12;;;;;;;5.87;1.50;;;25.30;99.90;;;;;;5041165;28;20241;-53
2022/07/14 06:35:40;;;;;;;2.63;1.23;;;25.40;99.90;;;;;;5039323;28;20221;-53
2022/07/14 06:38:07;;;;;;;2.70;1.80;;;25.40;99.90;;;;;;5052226;28;20224;-52
2022/07/14 06:40:34;;;;;;;5.53;1.00;;;25.10;99.90;;;;;;5053469;28;20197;-52
2022/07/14 06:43:03;;;;;;;4.10;1.63;;;25.20;99.90;;;;;;5048366;28;20198;-52
2022/07/14 06:45:30;;;;;;;1.60;1.43;;;25.20;99.90;;;;;;5038789;28;20249;-52
2022/07/14 06:47:57;;;;;;;2.77;1.60;;;25.20;99.90;;;;;;5042990;28;20264;-52
2022/07/14 06:50:24;;;;;;;3.43;1.10;;;25.30;99.90;;;;;;5037139;28;20822;-53
2022/07/14 06:52:51;;;;;;;2.97;1.80;;;25.50;99.90;;;;;;5042052;28;20202;-53
2022/07/14 06:55:18;;;;;;;3.37;1.30;;;25.70;99.90;;;;;;5053887;28;20226;-52
2022/07/14 06:57:45;;;;;;;1.20;1.10;;;25.80;99.90;;;;;;5052468;28;20205;-53
2022/07/14 07:00:15;;;;;;;1.87;1.33;;;25.90;99.90;;;;;;5045622;28;20253;-53
2022/07/14 07:02:42;;;;;;;7.97;1.50;;;26.10;99.90;;;;;;5042240;28;20293;-53
2022/07/14 07:07:58;;;;;;;0.90;0.90;;;28.20;99.00;;;;;;5049445;28;20280;-52
2022/07/14 07:10:25;;;;;;;1.52;1.30;;;28.80;98.90;;;;;;5047363;28;20289;-53
2022/07/14 07:12:53;;;;;;;3.90;1.42;;;28.70;98.10;;;;;;5031936;28;20290;-52
2022/07/14 07:15:21;;;;;;;2.90;1.20;;;29.00;98.30;;;;;;5030921;28;20226;-53
2022/07/14 07:17:49;;;;;;;1.98;1.30;;;30.00;97.50;;;;;;5032320;28;20602;-53
2022/07/14 07:20:16;;;;;;;3.72;1.20;;;30.80;97.10;;;;;;5032490;28;20308;-53
2022/07/14 07:22:43;;;;;;;3.67;1.20;;;30.90;95.30;;;;;;5029240;28;20203;-52
2022/07/14 07:25:12;;;;;;;4.13;1.33;;;30.20;96.00;;;;;;5031941;28;20226;-53
2022/07/14 07:27:39;;;;;;;2.45;1.45;;;30.30;94.70;;;;;;5030819;28;20206;-53
2022/07/14 07:30:08;;;;;;;1.10;0.98;;;31.40;96.60;;;;;;5032478;28;20195;-53
2022/07/14 07:32:37;;;;;;;1.95;1.63;;;32.60;93.10;;;;;;5032010;28;20234;-53
2022/07/14 07:35:05;;;;;;;5.07;1.80;;;33.40;92.20;;;;;;5029304;28;20218;-53
2022/07/14 07:37:32;;;;;;;1.48;1.38;;;33.90;92.70;;;;;;5030103;28;20206;-53
2022/07/14 07:40:01;;;;;;;1.88;1.20;;;34.70;90.10;;;;;;5031720;28;20623;-53
2022/07/14 07:42:29;;;;;;;6.40;1.20;;;35.30;88.80;;;;;;5029375;28;20202;-54
2022/07/14 07:44:57;;;;;;;1.20;1.20;;;35.80;87.40;;;;;;5031075;28;20234;-55
2022/07/14 07:47:25;;;;;;;2.80;1.20;;;36.20;80.10;;;;;;5031165;28;20202;-52
2022/07/14 07:49:54;;;;;;;1.55;0.93;;;36.30;85.80;;;;;;5030304;28;20934;-55
2022/07/14 07:52:21;;;;;;;2.10;1.45;;;36.00;88.40;;;;;;5030570;28;20703;-55
2022/07/14 07:54:48;;;;;;;1.95;1.20;;;35.90;89.00;;;;;;5032192;28;20235;-55
2022/07/14 07:57:15;;;;;;;1.52;1.17;;;36.00;82.30;;;;;;5030466;28;20268;-54
2022/07/14 07:59:42;;;;;;;1.55;1.35;;;35.00;85.70;;;;;;5030946;28;20703;-55
2022/07/14 08:02:09;;;;;;;2.38;1.70;;;35.40;87.90;;;;;;5034319;28;20727;-55
2022/07/14 08:04:36;;;;;;;3.15;1.52;;;35.50;88.80;;;;;;5029631;28;20619;-55
2022/07/14 08:07:05;;;;;;;1.55;1.40;;;35.20;85.90;;;;;;5031537;28;20229;-55
2022/07/14 08:09:32;;;;;;;3.72;1.20;;;35.00;85.10;;;;;;5032024;28;20252;-54
2022/07/14 08:11:59;;;;;;;4.95;1.95;;;34.70;86.20;;;;;;5029926;28;20256;-54
2022/07/14 08:17:10;;;;;;;2.63;1.13;;;34.00;86.80;;;;;;5030441;28;20682;-55
2022/07/14 08:19:38;;;;;;;3.80;1.30;;;34.20;84.40;;;;;;5030831;28;20305;-55
2022/07/14 08:22:06;;;;;;;2.83;1.27;;;34.50;83.00;;;;;;5030882;28;20699;-54
2022/07/14 08:24:33;;;;;;;2.78;1.52;;;34.20;83.60;;;;;;5031688;28;20203;-55
2022/07/14 08:27:00;;;;;;;1.55;1.33;;;34.60;83.00;;;;;;5035635;28;20221;-55
2022/07/14 08:29:27;;;;;;;1.00;1.00;;;35.00;84.80;;;;;;5030564;28;20743;-54
2022/07/14 08:31:54;;;;;;;3.95;1.80;;;35.10;89.30;;;;;;5044657;28;20194;-55
2022/07/14 08:34:22;;;;;;;2.55;1.38;;;35.00;84.70;;;;;;5049191;28;20272;-55
2022/07/14 08:36:49;;;;;;;3.38;1.40;;;35.10;88.00;;;;;;5050390;28;20213;-55
2022/07/14 08:39:17;;;;;;;2.88;1.38;;;35.70;86.60;;;;;;5037092;28;20301;-55
2022/07/14 08:41:47;;;;;;;3.55;1.20;;;35.70;82.80;;;;;;5045171;28;20194;-54
2022/07/14 08:44:15;;;;;;;1.30;1.10;;;35.20;82.80;;;;;;5049864;28;20667;-55
2022/07/14 08:46:42;;;;;;;1.48;1.23;;;34.70;84.40;;;;;;5044498;28;20226;-55
2022/07/14 08:49:09;;;;;;;2.72;1.55;;;35.20;85.40;;;;;;5037492;28;20264;-54
2022/07/14 08:51:40;;;;;;;2.78;1.48;;;35.50;79.00;;;;;;5048753;28;20206;-55
2022/07/14 08:54:10;;;;;;;1.52;1.40;;;35.80;83.00;;;;;;5049957;28;20217;-55
2022/07/14 08:56:39;;;;;;;0.98;0.90;;;36.00;85.60;;;;;;5049737;28;20226;-55
2022/07/14 08:59:07;;;;;;;1.40;1.38;;;36.50;83.00;;;;;;5041231;28;20341;-55
2022/07/14 09:01:34;;;;;;;1.40;1.40;;;36.50;82.30;;;;;;5046616;28;20190;-55
2022/07/14 09:04:01;;;;;;;1.40;1.30;;;36.70;84.50;;;;;;5047906;28;20202;-55
2022/07/14 09:06:48;;;;;;;4.00;1.40;;;36.50;78.80;;;;;;5049760;28;20225;-55
2022/07/14 09:09:17;;;;;;;1.17;1.17;;;37.10;82.10;;;;;;5040180;28;20197;-54
2022/07/14 09:11:57;;;;;;;1.42;1.08;;;37.50;79.00;;;;;;5047807;28;20288;-55
2022/07/14 09:14:24;;;;;;;1.33;1.23;;;36.90;73.80;;;;;;5041805;28;20555;-55
2022/07/14 09:16:52;;;;;;;4.63;1.42;;;36.40;78.10;;;;;;5048292;28;20280;-55
2022/07/14 09:19:20;;;;;;;1.77;1.10;;;36.50;77.00;;;;;;5030427;28;20214;-54
2022/07/14 09:21:54;;;;;;;1.20;1.13;;;36.80;77.40;;;;;;5032561;28;20684;-55
2022/07/14 09:24:22;;;;;;;0.80;0.80;;;36.60;76.40;;;;;;5034063;28;20317;-56
2022/07/14 09:26:52;;;;;;;1.30;0.80;;;36.80;71.80;;;;;;5033942;28;20226;-55
2022/07/14 09:29:23;;;;;;;0.85;0.85;;;36.80;76.60;;;;;;5033073;28;20249;-55
2022/07/14 09:31:50;;;;;;;2.30;1.30;;;36.50;76.30;;;;;;5034160;28;20202;-55
2022/07/14 09:34:28;;;;;;;0.82;0.82;;;36.50;75.90;;;;;;5033957;28;20213;-55
2022/07/14 09:37:11;;;;;;;2.00;1.10;;;36.10;80.70;;;;;;5033078;28;20311;-55
2022/07/14 09:39:52;;;;;;;0.88;0.88;;;36.20;72.80;;;;;;5033401;28;20226;-55
2022/07/14 09:42:20;;;;;;;1.63;0.95;;;36.60;78.30;;;;;;5027125;28;20747;-55
2022/07/14 09:44:47;;;;;;;1.55;1.20;;;36.70;76.20;;;;;;5034441;28;20260;-55
2022/07/14 09:47:14;;;;;;;1.75;1.65;;;36.20;79.20;;;;;;5033603;28;20661;-54
2022/07/14 09:49:41;;;;;;;4.40;1.30;;;35.90;84.30;;;;;;5032474;28;20209;-55
2022/07/14 09:52:08;;;;;;;5.38;1.85;;;35.70;84.80;;;;;;5033396;28;20241;-54
2022/07/14 09:54:48;;;;;;;2.67;1.30;;;34.90;85.00;;;;;;5034478;28;20203;-55
2022/07/14 09:57:27;;;;;;;1.85;1.30;;;34.90;83.00;;;;;;5074089;22;20229;-50
2022/07/14 09:59:56;;;;;;;2.42;1.75;;;35.10;83.00;;;;;;5045144;28;20300;-50
2022/07/14 10:02:26;;;;;;;2.67;1.35;;;35.20;83.10;;;;;;5048284;28;20206;-50
2022/07/14 10:04:56;;;;;;;1.65;1.60;;;35.60;78.10;;;;;;5048662;28;20213;-50
2022/07/14 10:07:25;;;;;;;2.25;1.25;;;36.10;79.40;;;;;;5033557;28;20296;-50
2022/07/14 10:09:59;;;;;;;3.08;1.30;;;35.80;77.00;;;;;;5032738;28;20619;-50
2022/07/14 10:12:28;;;;;;;1.55;1.25;;;36.00;80.20;;;;;;5029397;28;20206;-50
2022/07/14 10:14:59;;;;;;;2.40;1.23;;;36.50;73.80;;;;;;5031521;28;20284;-50
2022/07/14 10:17:28;;;;;;;2.45;1.10;;;36.50;78.20;;;;;;5032634;28;20832;-50
2022/07/14 10:19:56;;;;;;;3.00;1.38;;;36.90;79.30;;;;;;5031293;28;20225;-50
2022/07/14 10:22:23;;;;;;;2.67;1.20;;;36.80;81.50;;;;;;5032311;28;20230;-50
2022/07/14 10:24:51;;;;;;;1.08;1.08;;;35.80;78.30;;;;;;5034262;28;20230;-50
2022/07/14 10:27:19;;;;;;;0.80;0.80;;;35.10;76.50;;;;;;5034482;28;20305;-50
2022/07/14 10:29:51;;;;;;;3.08;1.25;;;35.00;76.70;;;;;;5030296;28;20230;-50
2022/07/14 10:32:38;;;;;;;1.00;0.90;;;35.10;75.20;;;;;;5033653;28;20207;-50
2022/07/14 10:35:21;;;;;;;1.10;1.05;;;35.00;77.60;;;;;;5034240;28;20256;-49
2022/07/14 10:38:04;;;;;;;0.90;0.90;;;35.10;75.40;;;;;;5032552;28;20252;-50
2022/07/14 10:40:40;;;;;;;1.27;0.80;;;35.10;71.20;;;;;;5031915;28;20577;-50
2022/07/14 10:43:11;;;;;;;2.92;1.20;;;35.50;72.40;;;;;;5024288;28;20202;-50
2022/07/14 10:45:48;;;;;;;1.02;1.00;;;35.80;71.20;;;;;;5028745;28;20222;-50
2022/07/14 10:48:29;;;;;;;1.60;1.35;;;36.10;69.40;;;;;;5028288;28;20194;-50
2022/07/14 10:51:17;;;;;;;0.93;0.93;;;35.70;72.00;;;;;;5028627;28;20200;-50
2022/07/14 10:54:01;;;;;;;1.17;1.08;;;35.80;70.00;;;;;;5031838;28;20208;-50
2022/07/14 10:56:28;;;;;;;1.92;1.15;;;35.90;70.10;;;;;;5023761;28;20797;-50
2022/07/14 10:59:29;;;;;;;3.50;0.80;;;35.10;70.90;;;;;;5032985;28;20732;-50
2022/07/14 11:02:37;;;;;;;1.17;1.17;;;34.70;72.20;;;;;;5031447;28;20206;-50
2022/07/14 11:05:11;;;;;;;0.95;0.95;;;34.30;71.60;;;;;;5036031;28;20253;-50
2022/07/14 11:07:48;;;;;;;1.75;0.70;;;34.30;77.40;;;;;;5033753;28;20206;-50
2022/07/14 11:11:09;;;;;;;1.58;0.95;;;34.20;73.50;;;;;;5033796;28;20186;-50
2022/07/14 11:13:51;;;;;;;3.72;1.63;;;34.40;77.50;;;;;;5030916;28;20557;-51
2022/07/14 11:16:18;;;;;;;1.30;1.30;;;34.40;73.40;;;;;;5031005;28;20229;-52
2022/07/14 11:18:48;;;;;;;2.50;1.23;;;34.20;75.20;;;;;;5032128;28;20615;-52
2022/07/14 11:21:17;;;;;;;0.90;0.82;;;34.30;69.80;;;;;;5016430;28;21099;-52
2022/07/14 11:24:03;;;;;;;1.00;0.75;;;34.30;72.40;;;;;;5024622;28;20234;-52
2022/07/14 11:26:40;;;;;;;1.77;0.90;;;34.50;74.90;;;;;;5028495;28;20226;-52
2022/07/14 11:29:08;;;;;;;0.77;0.77;;;34.70;70.20;;;;;;5033113;28;20695;-52
2022/07/14 11:31:46;;;;;;;0.70;0.70;;;34.50;69.50;;;;;;5031912;28;20252;-51
2022/07/14 11:37:07;;;;;;;3.13;0.90;;;34.10;71.30;;;;;;5027904;28;20234;-51
2022/07/14 11:39:35;;;;;;;0.70;0.70;;;33.90;78.50;;;;;;5029558;28;20231;-52
2022/07/14 11:42:06;;;;;;;5.72;0.90;;;33.80;72.60;;;;;;5030688;28;20209;-51
2022/07/14 11:44:52;;;;;;;0.90;0.90;;;33.80;84.90;;;;;;5031729;28;20561;-52
2022/07/14 11:47:22;;;;;;;1.13;0.90;;;33.60;74.70;;;;;;5031492;28;20719;-51
2022/07/14 11:50:01;;;;;;;3.42;1.17;;;33.30;75.80;;;;;;5030506;28;20198;-51
2022/07/14 11:52:31;;;;;;;1.15;0.88;;;33.00;76.50;;;;;;5031033;28;20252;-51
2022/07/14 11:54:59;;;;;;;1.70;1.20;;;33.10;86.90;;;;;;5018437;28;20199;-50
2022/07/14 11:57:26;;;;;;;0.85;0.85;;;33.00;77.40;;;;;;5025670;28;20653;-52
2022/07/14 11:59:54;;;;;;;1.25;1.15;;;33.00;78.80;;;;;;5028455;28;20222;-51
2022/07/14 12:02:23;;;;;;;1.85;1.05;;;33.00;80.50;;;;;;5030295;28;20732;-51
2022/07/14 12:04:55;;;;;;;1.17;1.13;;;32.90;79.90;;;;;;5031277;28;20652;-51
2022/07/14 12:07:25;;;;;;;2.13;1.90;;;32.90;80.70;;;;;;5031371;28;20214;-52
2022/07/14 12:09:53;;;;;;;1.60;1.33;;;33.00;82.90;;;;;;5030565;28;20195;-51
2022/07/14 12:12:21;;;;;;;1.85;1.35;;;33.00;80.20;;;;;;5027345;28;20201;-51
2022/07/14 12:14:52;;;;;;;1.25;1.25;;;32.90;79.40;;;;;;5025758;28;20713;-52
2022/07/14 12:17:20;;;;;;;1.38;1.27;;;32.70;81.10;;;;;;5030966;28;20229;-51
2022/07/14 12:19:48;;;;;;;1.50;1.40;;;32.70;82.50;;;;;;5030909;28;20245;-52
2022/07/14 12:22:16;;;;;;;1.10;1.10;;;32.70;80.70;;;;;;5030477;28;20252;-51
2022/07/14 12:24:45;;;;;;;1.58;1.15;;;32.50;78.70;;;;;;5022083;28;20204;-52
2022/07/14 12:27:13;;;;;;;3.53;1.33;;;32.50;80.20;;;;;;5030252;28;20272;-51
2022/07/14 12:29:50;;;;;;;1.55;1.25;;;32.50;79.90;;;;;;5011545;28;20933;-51
2022/07/14 12:32:18;;;;;;;1.67;1.35;;;32.50;82.10;;;;;;5011082;28;20217;-52
2022/07/14 12:34:49;;;;;;;1.90;1.80;;;32.60;82.60;;;;;;5021454;28;20648;-52
2022/07/14 12:37:16;;;;;;;3.13;1.52;;;32.60;85.70;;;;;;5030569;28;20237;-52
2022/07/14 12:39:46;;;;;;;1.40;1.30;;;32.60;82.10;;;;;;5030814;28;20210;-53
2022/07/14 12:42:13;;;;;;;2.30;1.30;;;32.70;81.40;;;;;;5029732;28;20206;-52
2022/07/14 12:44:59;;;;;;;1.58;1.48;;;32.60;81.90;;;;;;5027274;28;20202;-52
2022/07/14 12:47:26;;;;;;;1.58;1.48;;;32.60;80.80;;;;;;5030155;28;20249;-52
2022/07/14 12:49:54;;;;;;;2.05;1.95;;;32.60;79.00;;;;;;5029217;28;20255;-52
2022/07/14 12:52:22;;;;;;;4.15;1.35;;;32.60;83.10;;;;;;5028743;28;20198;-52
2022/07/14 12:54:52;;;;;;;3.65;1.20;;;32.50;84.40;;;;;;5025096;28;20202;-52
2022/07/14 12:57:21;;;;;;;1.70;1.70;;;32.30;85.60;;;;;;5030025;28;20230;-52
2022/07/14 12:59:54;;;;;;;2.47;1.00;;;32.10;86.60;;;;;;5030294;28;20290;-52
2022/07/14 13:02:24;;;;;;;2.20;1.52;;;32.10;83.80;;;;;;5018178;28;20689;-52
2022/07/14 13:04:53;;;;;;;1.45;1.35;;;32.10;82.70;;;;;;5023603;28;20198;-51
2022/07/14 13:07:25;;;;;;;3.63;1.95;;;32.00;81.80;;;;;;5030040;28;20229;-52
2022/07/14 13:10:12;;;;;;;1.75;1.55;;;32.00;82.30;;;;;;5030149;28;20229;-52
2022/07/14 13:12:44;;;;;;;1.55;1.50;;;32.10;84.60;;;;;;5029030;28;20194;-51